sensor_id;sensor_type;location;lat;lon;timestamp;pressure;altitude;pressure_sealevel;temperature;humidity
53647;BME280;39550;52.230;5.194;2023-04-24T00:00:10;99611.91;;;11.15;80.76
53647;BME280;39550;52.230;5.194;2023-04-24T00:02:38;99617.94;;;11.14;80.90
53647;BME280;39550;52.230;5.194;2023-04-24T00:05:04;99624.00;;;11.11;80.59
53647;BME280;39550;52.230;5.194;2023-04-24T00:07:30;99630.00;;;11.10;80.31
53647;BME280;39550;52.230;5.194;2023-04-24T00:09:56;99630.91;;;11.07;80.44
53647;BME280;39550;52.230;5.194;2023-04-24T00:12:21;99626.66;;;11.05;81.02
53647;BME280;39550;52.230;5.194;2023-04-24T00:14:46;99645.59;;;11.04;80.61
53647;BME280;39550;52.230;5.194;2023-04-24T00:17:12;99651.56;;;11.04;81.13
53647;BME280;39550;52.230;5.194;2023-04-24T00:19:37;99660.19;;;11.03;81.24
53647;BME280;39550;52.230;5.194;2023-04-24T00:22:03;99658.50;;;11.02;81.02
53647;BME280;39550;52.230;5.194;2023-04-24T00:24:28;99661.09;;;10.98;80.89
53647;BME280;39550;52.230;5.194;2023-04-24T00:26:53;99679.13;;;11.01;81.29
53647;BME280;39550;52.230;5.194;2023-04-24T00:29:19;99671.41;;;11.01;80.75
53647;BME280;39550;52.230;5.194;2023-04-24T00:31:44;99673.09;;;11.02;81.12
53647;BME280;39550;52.230;5.194;2023-04-24T00:34:10;99679.13;;;10.99;81.16
53647;BME280;39550;52.230;5.194;2023-04-24T00:36:37;99683.47;;;10.97;81.25
53647;BME280;39550;52.230;5.194;2023-04-24T00:39:02;99696.34;;;10.99;80.92
53647;BME280;39550;52.230;5.194;2023-04-24T00:41:28;99704.06;;;10.99;81.07
53647;BME280;39550;52.230;5.194;2023-04-24T00:43:53;99683.53;;;10.89;81.13
53647;BME280;39550;52.230;5.194;2023-04-24T00:46:19;99694.63;;;10.98;81.30
53647;BME280;39550;52.230;5.194;2023-04-24T00:48:44;99702.41;;;10.95;80.71
53647;BME280;39550;52.230;5.194;2023-04-24T00:51:10;99708.44;;;10.95;80.72
53647;BME280;39550;52.230;5.194;2023-04-24T00:53:35;99705.84;;;10.94;81.21
53647;BME280;39550;52.230;5.194;2023-04-24T00:56:01;99710.16;;;10.93;81.04
53647;BME280;39550;52.230;5.194;2023-04-24T00:58:27;99719.59;;;10.94;81.02
53647;BME280;39550;52.230;5.194;2023-04-24T01:00:54;99719.63;;;10.93;80.89
53647;BME280;39550;52.230;5.194;2023-04-24T01:03:22;99719.63;;;10.91;80.77
53647;BME280;39550;52.230;5.194;2023-04-24T01:05:48;99723.91;;;10.90;81.17
53647;BME280;39550;52.230;5.194;2023-04-24T01:08:14;99721.38;;;10.89;81.00
53647;BME280;39550;52.230;5.194;2023-04-24T01:10:41;99734.22;;;10.90;81.45
53647;BME280;39550;52.230;5.194;2023-04-24T01:13:07;99728.25;;;10.88;81.08
53647;BME280;39550;52.230;5.194;2023-04-24T01:15:34;99731.69;;;10.87;80.81
53647;BME280;39550;52.230;5.194;2023-04-24T01:17:59;99732.56;;;10.86;81.17
53647;BME280;39550;52.230;5.194;2023-04-24T01:20:25;99738.56;;;10.85;80.87
53647;BME280;39550;52.230;5.194;2023-04-24T01:22:51;99737.72;;;10.85;81.06
53647;BME280;39550;52.230;5.194;2023-04-24T01:25:18;99740.34;;;10.83;81.12
53647;BME280;39550;52.230;5.194;2023-04-24T01:27:43;99735.19;;;10.82;80.94
53647;BME280;39550;52.230;5.194;2023-04-24T01:30:09;99738.63;;;10.82;81.13
53647;BME280;39550;52.230;5.194;2023-04-24T01:32:35;99735.19;;;10.83;80.99
53647;BME280;39550;52.230;5.194;2023-04-24T01:35:02;99736.94;;;10.80;80.82
53647;BME280;39550;52.230;5.194;2023-04-24T01:37:27;99732.66;;;10.80;81.03
53647;BME280;39550;52.230;5.194;2023-04-24T01:39:53;99743.81;;;10.79;81.04
53647;BME280;39550;52.230;5.194;2023-04-24T01:42:18;99742.06;;;10.80;81.02
53647;BME280;39550;52.230;5.194;2023-04-24T01:44:44;99736.09;;;10.79;81.05
53647;BME280;39550;52.230;5.194;2023-04-24T01:47:10;99742.09;;;10.78;81.25
53647;BME280;39550;52.230;5.194;2023-04-24T01:49:37;99747.25;;;10.78;80.97
53647;BME280;39550;52.230;5.194;2023-04-24T01:52:03;99746.41;;;10.78;81.10
53647;BME280;39550;52.230;5.194;2023-04-24T01:54:28;99752.41;;;10.78;80.96
53647;BME280;39550;52.230;5.194;2023-04-24T01:56:53;99745.53;;;10.77;81.05
53647;BME280;39550;52.230;5.194;2023-04-24T01:59:20;99749.00;;;10.76;81.20
53647;BME280;39550;52.230;5.194;2023-04-24T02:01:46;99751.59;;;10.76;80.72
53647;BME280;39550;52.230;5.194;2023-04-24T02:04:11;99752.44;;;10.75;80.60
53647;BME280;39550;52.230;5.194;2023-04-24T02:06:37;99757.59;;;10.75;81.01
53647;BME280;39550;52.230;5.194;2023-04-24T02:09:02;99753.31;;;10.74;81.19
53647;BME280;39550;52.230;5.194;2023-04-24T02:11:28;99755.03;;;10.73;80.85
53647;BME280;39550;52.230;5.194;2023-04-24T02:13:53;99749.03;;;10.73;80.65
53647;BME280;39550;52.230;5.194;2023-04-24T02:16:19;99760.19;;;10.73;81.33
53647;BME280;39550;52.230;5.194;2023-04-24T02:18:44;99757.63;;;10.72;80.77
53647;BME280;39550;52.230;5.194;2023-04-24T02:21:10;99755.91;;;10.71;81.14
53647;BME280;39550;52.230;5.194;2023-04-24T02:23:36;99763.66;;;10.71;80.84
53647;BME280;39550;52.230;5.194;2023-04-24T02:26:01;99758.50;;;10.69;81.13
53647;BME280;39550;52.230;5.194;2023-04-24T02:28:27;99752.53;;;10.69;81.02
53647;BME280;39550;52.230;5.194;2023-04-24T02:30:53;99761.13;;;10.68;80.80
53647;BME280;39550;52.230;5.194;2023-04-24T02:33:18;99759.41;;;10.67;81.18
53647;BME280;39550;52.230;5.194;2023-04-24T02:35:43;99759.41;;;10.67;81.23
53647;BME280;39550;52.230;5.194;2023-04-24T02:38:09;99766.25;;;10.68;81.01
53647;BME280;39550;52.230;5.194;2023-04-24T02:40:34;99764.56;;;10.67;80.86
53647;BME280;39550;52.230;5.194;2023-04-24T02:42:59;99766.31;;;10.65;81.16
53647;BME280;39550;52.230;5.194;2023-04-24T02:45:25;99761.16;;;10.65;80.99
53647;BME280;39550;52.230;5.194;2023-04-24T02:47:50;99762.84;;;10.64;80.96
53647;BME280;39550;52.230;5.194;2023-04-24T02:50:15;99769.75;;;10.64;80.99
53647;BME280;39550;52.230;5.194;2023-04-24T02:52:41;99764.63;;;10.61;80.92
53647;BME280;39550;52.230;5.194;2023-04-24T02:55:06;99762.88;;;10.63;81.30
53647;BME280;39550;52.230;5.194;2023-04-24T02:57:33;99769.75;;;10.64;81.05
53647;BME280;39550;52.230;5.194;2023-04-24T02:59:58;99759.44;;;10.64;81.00
53647;BME280;39550;52.230;5.194;2023-04-24T03:02:23;99762.88;;;10.63;80.93
53647;BME280;39550;52.230;5.194;2023-04-24T03:04:49;99759.47;;;10.61;80.84
53647;BME280;39550;52.230;5.194;2023-04-24T03:07:14;99762.91;;;10.60;81.02
53647;BME280;39550;52.230;5.194;2023-04-24T03:09:40;99771.50;;;10.59;81.05
53647;BME280;39550;52.230;5.194;2023-04-24T03:12:06;99766.34;;;10.59;80.86
53647;BME280;39550;52.230;5.194;2023-04-24T03:14:31;99767.19;;;10.59;80.80
53647;BME280;39550;52.230;5.194;2023-04-24T03:16:57;99765.50;;;10.58;80.82
53647;BME280;39550;52.230;5.194;2023-04-24T03:19:22;99761.19;;;10.59;80.68
53647;BME280;39550;52.230;5.194;2023-04-24T03:21:48;99766.34;;;10.59;80.89
53647;BME280;39550;52.230;5.194;2023-04-24T03:24:13;99768.97;;;10.55;80.58
53647;BME280;39550;52.230;5.194;2023-04-24T03:26:38;99768.09;;;10.56;81.16
53647;BME280;39550;52.230;5.194;2023-04-24T03:29:04;99767.25;;;10.54;81.06
53647;BME280;39550;52.230;5.194;2023-04-24T03:31:29;99772.41;;;10.54;80.98
53647;BME280;39550;52.230;5.194;2023-04-24T03:33:54;99776.69;;;10.54;80.84
53647;BME280;39550;52.230;5.194;2023-04-24T03:36:20;99769.84;;;10.51;80.99
53647;BME280;39550;52.230;5.194;2023-04-24T03:38:45;99764.69;;;10.51;80.85
53647;BME280;39550;52.230;5.194;2023-04-24T03:41:11;99772.44;;;10.51;80.89
53647;BME280;39550;52.230;5.194;2023-04-24T03:43:37;99767.28;;;10.50;80.78
53647;BME280;39550;52.230;5.194;2023-04-24T03:46:02;99767.28;;;10.50;80.88
53647;BME280;39550;52.230;5.194;2023-04-24T03:48:28;99767.28;;;10.50;80.94
53647;BME280;39550;52.230;5.194;2023-04-24T03:50:53;99770.72;;;10.50;80.87
53647;BME280;39550;52.230;5.194;2023-04-24T03:53:18;99761.28;;;10.49;80.85
53647;BME280;39550;52.230;5.194;2023-04-24T03:55:44;99763.03;;;10.47;81.23
53647;BME280;39550;52.230;5.194;2023-04-24T03:58:11;99763.03;;;10.47;81.06
53647;BME280;39550;52.230;5.194;2023-04-24T04:00:37;99769.91;;;10.47;81.02
53647;BME280;39550;52.230;5.194;2023-04-24T04:03:03;99767.31;;;10.45;80.93
53647;BME280;39550;52.230;5.194;2023-04-24T04:05:28;99769.91;;;10.47;81.16
53647;BME280;39550;52.230;5.194;2023-04-24T04:07:54;99776.75;;;10.46;80.75
53647;BME280;39550;52.230;5.194;2023-04-24T04:10:20;99775.03;;;10.45;80.92
53647;BME280;39550;52.230;5.194;2023-04-24T04:12:45;99781.09;;;10.44;81.00
53647;BME280;39550;52.230;5.194;2023-04-24T04:15:11;99783.66;;;10.44;81.30
53647;BME280;39550;52.230;5.194;2023-04-24T04:17:36;99780.22;;;10.42;81.10
53647;BME280;39550;52.230;5.194;2023-04-24T04:20:03;99785.38;;;10.42;80.94
53647;BME280;39550;52.230;5.194;2023-04-24T04:22:32;99792.25;;;10.42;81.32
53647;BME280;39550;52.230;5.194;2023-04-24T04:24:57;99799.13;;;10.41;81.03
53647;BME280;39550;52.230;5.194;2023-04-24T04:27:22;99795.69;;;10.41;81.32
53647;BME280;39550;52.230;5.194;2023-04-24T04:29:48;99803.41;;;10.42;80.87
53647;BME280;39550;52.230;5.194;2023-04-24T04:32:13;99803.44;;;10.41;81.42
53647;BME280;39550;52.230;5.194;2023-04-24T04:34:39;99802.59;;;10.40;80.97
53647;BME280;39550;52.230;5.194;2023-04-24T04:37:04;99812.00;;;10.39;80.87
53647;BME280;39550;52.230;5.194;2023-04-24T04:39:31;99815.47;;;10.40;81.19
53647;BME280;39550;52.230;5.194;2023-04-24T04:41:56;99821.47;;;10.39;81.08
53647;BME280;39550;52.230;5.194;2023-04-24T04:54:35;99845.50;;;10.38;81.02
53647;BME280;39550;52.230;5.194;2023-04-24T04:57:00;99838.63;;;10.34;81.26
53647;BME280;39550;52.230;5.194;2023-04-24T04:59:26;99850.63;;;10.39;80.85
53647;BME280;39550;52.230;5.194;2023-04-24T05:01:52;99855.84;;;10.35;81.28
53647;BME280;39550;52.230;5.194;2023-04-24T05:04:17;99855.84;;;10.35;81.20
53647;BME280;39550;52.230;5.194;2023-04-24T05:06:43;99849.81;;;10.33;81.42
53647;BME280;39550;52.230;5.194;2023-04-24T05:09:08;99857.53;;;10.33;81.30
53647;BME280;39550;52.230;5.194;2023-04-24T05:11:34;99857.53;;;10.33;81.23
53647;BME280;39550;52.230;5.194;2023-04-24T05:13:59;99866.13;;;10.32;81.31
53647;BME280;39550;52.230;5.194;2023-04-24T05:16:24;99866.13;;;10.32;81.46
53647;BME280;39550;52.230;5.194;2023-04-24T05:18:50;99876.44;;;10.32;81.39
53647;BME280;39550;52.230;5.194;2023-04-24T05:21:15;99878.16;;;10.30;81.34
53647;BME280;39550;52.230;5.194;2023-04-24T05:23:41;99882.44;;;10.29;81.60
53647;BME280;39550;52.230;5.194;2023-04-24T05:26:06;99886.75;;;10.29;81.53
53647;BME280;39550;52.230;5.194;2023-04-24T05:28:31;99886.75;;;10.29;80.88
53647;BME280;39550;52.230;5.194;2023-04-24T05:30:57;99890.19;;;10.28;81.11
53647;BME280;39550;52.230;5.194;2023-04-24T05:33:24;99902.19;;;10.26;81.02
53647;BME280;39550;52.230;5.194;2023-04-24T05:35:49;99909.06;;;10.27;80.97
53647;BME280;39550;52.230;5.194;2023-04-24T05:38:15;99907.34;;;10.26;81.56
53647;BME280;39550;52.230;5.194;2023-04-24T05:40:43;99917.66;;;10.26;81.65
53647;BME280;39550;52.230;5.194;2023-04-24T05:43:08;99918.53;;;10.23;81.44
53647;BME280;39550;52.230;5.194;2023-04-24T05:45:33;99921.09;;;10.23;81.30
53647;BME280;39550;52.230;5.194;2023-04-24T05:48:01;99924.53;;;10.23;81.44
53647;BME280;39550;52.230;5.194;2023-04-24T05:50:26;99927.13;;;10.22;81.31
53647;BME280;39550;52.230;5.194;2023-04-24T05:52:52;99928.84;;;10.21;81.63
53647;BME280;39550;52.230;5.194;2023-04-24T05:55:17;99926.25;;;10.21;81.43
53647;BME280;39550;52.230;5.194;2023-04-24T05:57:43;99935.72;;;10.21;81.33
53647;BME280;39550;52.230;5.194;2023-04-24T06:00:09;99946.88;;;10.18;81.20
53647;BME280;39550;52.230;5.194;2023-04-24T06:02:37;99950.31;;;10.20;81.26
53647;BME280;39550;52.230;5.194;2023-04-24T06:05:03;99958.03;;;10.17;81.38
53647;BME280;39550;52.230;5.194;2023-04-24T06:07:30;99956.34;;;10.18;81.55
53647;BME280;39550;52.230;5.194;2023-04-24T06:09:55;99975.22;;;10.14;81.33
53647;BME280;39550;52.230;5.194;2023-04-24T06:12:20;99988.94;;;10.16;80.97
53647;BME280;39550;52.230;5.194;2023-04-24T06:14:46;99985.53;;;10.14;81.06
53647;BME280;39550;52.230;5.194;2023-04-24T06:17:12;99988.09;;;10.15;81.27
53647;BME280;39550;52.230;5.194;2023-04-24T06:19:37;99999.22;;;10.16;80.97
53647;BME280;39550;52.230;5.194;2023-04-24T06:22:02;100005.25;;;10.13;81.22
53647;BME280;39550;52.230;5.194;2023-04-24T06:24:28;100005.25;;;10.13;81.02
53647;BME280;39550;52.230;5.194;2023-04-24T06:26:53;100019.84;;;10.14;81.73
53647;BME280;39550;52.230;5.194;2023-04-24T06:29:19;100028.44;;;10.10;81.47
53647;BME280;39550;52.230;5.194;2023-04-24T06:31:44;100037.00;;;10.09;81.50
53647;BME280;39550;52.230;5.194;2023-04-24T06:34:10;100037.91;;;10.08;81.71
53647;BME280;39550;52.230;5.194;2023-04-24T06:36:35;100045.63;;;10.08;81.47
53647;BME280;39550;52.230;5.194;2023-04-24T06:39:01;100054.19;;;10.07;81.56
53647;BME280;39550;52.230;5.194;2023-04-24T06:41:27;100052.47;;;10.06;81.90
53647;BME280;39550;52.230;5.194;2023-04-24T06:43:53;100050.78;;;10.00;81.56
53647;BME280;39550;52.230;5.194;2023-04-24T06:46:18;100067.06;;;10.07;81.79
53647;BME280;39550;52.230;5.194;2023-04-24T06:48:43;100077.34;;;10.07;81.60
53647;BME280;39550;52.230;5.194;2023-04-24T06:51:09;100084.22;;;10.05;81.53
53647;BME280;39550;52.230;5.194;2023-04-24T06:53:35;100087.66;;;10.04;81.47
53647;BME280;39550;52.230;5.194;2023-04-24T06:56:00;100096.25;;;10.03;81.26
53647;BME280;39550;52.230;5.194;2023-04-24T06:58:26;100103.09;;;10.01;81.42
53647;BME280;39550;52.230;5.194;2023-04-24T07:00:51;100110.84;;;10.02;81.59
53647;BME280;39550;52.230;5.194;2023-04-24T07:03:16;100118.56;;;10.02;81.98
53647;BME280;39550;52.230;5.194;2023-04-24T07:05:42;100121.97;;;10.03;81.75
53647;BME280;39550;52.230;5.194;2023-04-24T07:08:07;100124.56;;;10.03;81.70
53647;BME280;39550;52.230;5.194;2023-04-24T07:10:33;100125.41;;;10.02;81.54
53647;BME280;39550;52.230;5.194;2023-04-24T07:13:00;100126.28;;;9.99;81.85
53647;BME280;39550;52.230;5.194;2023-04-24T07:15:26;100133.13;;;10.02;81.81
53647;BME280;39550;52.230;5.194;2023-04-24T07:31:03;100164.88;;;9.98;81.17
53647;BME280;39550;52.230;5.194;2023-04-24T07:33:28;100168.31;;;9.97;81.75
53647;BME280;39550;52.230;5.194;2023-04-24T07:35:53;100170.88;;;9.97;81.62
53647;BME280;39550;52.230;5.194;2023-04-24T07:38:19;100179.47;;;9.96;81.72
53647;BME280;39550;52.230;5.194;2023-04-24T07:40:48;100189.78;;;9.96;81.57
53647;BME280;39550;52.230;5.194;2023-04-24T07:43:13;100192.34;;;9.96;81.62
53647;BME280;39550;52.230;5.194;2023-04-24T07:45:39;100193.19;;;9.95;81.44
53647;BME280;39550;52.230;5.194;2023-04-24T07:51:27;100217.22;;;9.94;81.74
53647;BME280;39550;52.230;5.194;2023-04-24T07:53:56;100221.53;;;9.92;81.26
53647;BME280;39550;52.230;5.194;2023-04-24T07:56:21;100224.94;;;9.92;81.66
53647;BME280;39550;52.230;5.194;2023-04-24T07:58:46;100228.38;;;9.94;81.32
53647;BME280;39550;52.230;5.194;2023-04-24T08:01:12;100234.38;;;9.93;81.37
53647;BME280;39550;52.230;5.194;2023-04-24T08:03:37;100248.97;;;9.89;81.65
53647;BME280;39550;52.230;5.194;2023-04-24T08:06:03;100239.53;;;9.88;81.64
53647;BME280;39550;52.230;5.194;2023-04-24T08:08:28;100250.69;;;9.86;81.89
53647;BME280;39550;52.230;5.194;2023-04-24T08:10:53;100264.41;;;9.83;81.72
53647;BME280;39550;52.230;5.194;2023-04-24T08:13:19;100263.53;;;9.83;81.66
53647;BME280;39550;52.230;5.194;2023-04-24T08:15:45;100269.53;;;9.85;81.29
53647;BME280;39550;52.230;5.194;2023-04-24T08:18:10;100278.13;;;9.79;81.63
53647;BME280;39550;52.230;5.194;2023-04-24T08:20:37;100282.41;;;9.83;81.66
53647;BME280;39550;52.230;5.194;2023-04-24T08:23:02;100286.69;;;9.78;81.26
53647;BME280;39550;52.230;5.194;2023-04-24T08:25:28;100299.56;;;9.81;81.39
53647;BME280;39550;52.230;5.194;2023-04-24T08:27:53;100304.69;;;9.83;81.05
53647;BME280;39550;52.230;5.194;2023-04-24T08:30:19;100310.72;;;9.80;81.51
53647;BME280;39550;52.230;5.194;2023-04-24T08:32:45;100316.72;;;9.84;81.04
53647;BME280;39550;52.230;5.194;2023-04-24T08:35:11;100310.72;;;9.86;81.21
53647;BME280;39550;52.230;5.194;2023-04-24T08:37:36;100327.03;;;9.88;80.86
53647;BME280;39550;52.230;5.194;2023-04-24T08:40:06;100325.31;;;9.87;81.28
53647;BME280;39550;52.230;5.194;2023-04-24T08:42:37;100333.88;;;9.89;80.98
53647;BME280;39550;52.230;5.194;2023-04-24T08:45:02;100339.03;;;9.89;81.30
53647;BME280;39550;52.230;5.194;2023-04-24T08:47:29;100339.03;;;9.91;81.17
53647;BME280;39550;52.230;5.194;2023-04-24T08:49:55;100340.75;;;9.94;80.49
53647;BME280;39550;52.230;5.194;2023-04-24T08:52:21;100336.50;;;9.96;80.66
53647;BME280;39550;52.230;5.194;2023-04-24T08:54:47;100351.06;;;9.97;80.58
53647;BME280;39550;52.230;5.194;2023-04-24T08:57:14;100338.19;;;9.97;80.60
53647;BME280;39550;52.230;5.194;2023-04-24T08:59:40;100358.78;;;9.97;80.00
53647;BME280;39550;52.230;5.194;2023-04-24T09:02:06;100358.78;;;9.97;80.62
53647;BME280;39550;52.230;5.194;2023-04-24T09:04:35;100366.50;;;9.97;79.97
53647;BME280;39550;52.230;5.194;2023-04-24T09:07:00;100370.78;;;9.92;80.53
53647;BME280;39550;52.230;5.194;2023-04-24T09:09:30;100367.34;;;9.93;80.49
53647;BME280;39550;52.230;5.194;2023-04-24T09:11:56;100369.06;;;9.89;80.12
53647;BME280;39550;52.230;5.194;2023-04-24T09:14:22;100381.94;;;9.92;80.29
53647;BME280;39550;52.230;5.194;2023-04-24T09:16:49;100382.78;;;9.91;80.57
53647;BME280;39550;52.230;5.194;2023-04-24T09:19:14;100383.66;;;9.90;80.17
53647;BME280;39550;52.230;5.194;2023-04-24T09:21:40;100377.63;;;9.89;80.46
53647;BME280;39550;52.230;5.194;2023-04-24T09:24:15;100384.50;;;9.94;80.04
53647;BME280;39550;52.230;5.194;2023-04-24T09:30:04;100397.41;;;10.00;79.55
53647;BME280;39550;52.230;5.194;2023-04-24T09:32:30;100407.72;;;10.03;80.02
53647;BME280;39550;52.230;5.194;2023-04-24T09:37:37;100408.56;;;10.05;79.67
53647;BME280;39550;52.230;5.194;2023-04-24T09:40:17;100412.88;;;10.04;79.58
53647;BME280;39550;52.230;5.194;2023-04-24T09:42:54;100408.56;;;10.05;79.33
53647;BME280;39550;52.230;5.194;2023-04-24T09:55:39;100420.63;;;10.11;79.49
53647;BME280;39550;52.230;5.194;2023-04-24T09:58:04;100436.91;;;10.11;78.91
53647;BME280;39550;52.230;5.194;2023-04-24T10:00:32;100442.06;;;10.08;79.13
53647;BME280;39550;52.230;5.194;2023-04-24T10:03:02;100444.59;;;10.05;79.01
53647;BME280;39550;52.230;5.194;2023-04-24T10:05:32;100455.78;;;10.04;79.28
53647;BME280;39550;52.230;5.194;2023-04-24T10:08:04;100460.09;;;10.08;78.75
53647;BME280;39550;52.230;5.194;2023-04-24T10:10:31;100460.09;;;10.14;78.34
53647;BME280;39550;52.230;5.194;2023-04-24T10:12:57;100445.53;;;10.18;78.24
53647;BME280;39550;52.230;5.194;2023-04-24T10:15:22;100442.06;;;10.16;78.00
53647;BME280;39550;52.230;5.194;2023-04-24T10:17:49;100447.25;;;10.27;77.98
53647;BME280;39550;52.230;5.194;2023-04-24T10:20:22;100457.59;;;10.33;77.79
53647;BME280;39550;52.230;5.194;2023-04-24T10:22:49;100453.31;;;10.35;77.70
53647;BME280;39550;52.230;5.194;2023-04-24T10:25:25;100458.47;;;10.35;77.73
53647;BME280;39550;52.230;5.194;2023-04-24T10:27:52;100455.88;;;10.32;77.45
53647;BME280;39550;52.230;5.194;2023-04-24T10:30:20;100467.03;;;10.28;77.83
53647;BME280;39550;52.230;5.194;2023-04-24T10:32:46;100467.88;;;10.23;77.68
53647;BME280;39550;52.230;5.194;2023-04-24T10:35:12;100465.25;;;10.17;77.86
53647;BME280;39550;52.230;5.194;2023-04-24T10:37:48;100470.38;;;10.11;78.31
53647;BME280;39550;52.230;5.194;2023-04-24T10:40:18;100472.09;;;10.06;78.41
53647;BME280;39550;52.230;5.194;2023-04-24T10:42:47;100478.06;;;10.00;78.41
53647;BME280;39550;52.230;5.194;2023-04-24T10:45:19;100490.94;;;9.99;78.90
53647;BME280;39550;52.230;5.194;2023-04-24T10:48:07;100501.22;;;9.99;79.06
53647;BME280;39550;52.230;5.194;2023-04-24T10:50:50;100499.50;;;10.01;78.65
53647;BME280;39550;52.230;5.194;2023-04-24T10:53:18;100506.44;;;10.08;78.58
53647;BME280;39550;52.230;5.194;2023-04-24T10:55:48;100508.16;;;10.11;77.91
53647;BME280;39550;52.230;5.194;2023-04-24T10:58:13;100510.75;;;10.12;78.01
53647;BME280;39550;52.230;5.194;2023-04-24T11:00:40;100513.31;;;10.15;78.23
53647;BME280;39550;52.230;5.194;2023-04-24T11:05:56;100516.78;;;10.23;77.81
53647;BME280;39550;52.230;5.194;2023-04-24T11:08:45;100510.81;;;10.28;77.05
53647;BME280;39550;52.230;5.194;2023-04-24T11:11:11;100507.34;;;10.24;76.86
53647;BME280;39550;52.230;5.194;2023-04-24T11:16:28;100516.84;;;10.33;76.48
53647;BME280;39550;52.230;5.194;2023-04-24T11:19:08;100527.09;;;10.31;76.38
53647;BME280;39550;52.230;5.194;2023-04-24T11:22:14;100527.94;;;10.26;76.77
53647;BME280;39550;52.230;5.194;2023-04-24T11:24:49;100527.97;;;10.30;76.33
53647;BME280;39550;52.230;5.194;2023-04-24T11:27:20;100522.91;;;10.46;75.52
53647;BME280;39550;52.230;5.194;2023-04-24T11:32:28;100525.50;;;10.47;75.83
53647;BME280;39550;52.230;5.194;2023-04-24T11:34:56;100530.66;;;10.50;75.65
53647;BME280;39550;52.230;5.194;2023-04-24T11:37:23;100536.69;;;10.55;75.62
53647;BME280;39550;52.230;5.194;2023-04-24T11:39:57;100534.09;;;10.52;75.26
53647;BME280;39550;52.230;5.194;2023-04-24T11:42:23;100542.69;;;10.57;75.49
53647;BME280;39550;52.230;5.194;2023-04-24T11:44:50;100547.00;;;10.62;75.00
53647;BME280;39550;52.230;5.194;2023-04-24T11:47:16;100546.16;;;10.66;74.69
53647;BME280;39550;52.230;5.194;2023-04-24T11:49:42;100553.03;;;10.62;75.38
53647;BME280;39550;52.230;5.194;2023-04-24T11:52:07;100559.81;;;10.43;75.44
53647;BME280;39550;52.230;5.194;2023-04-24T11:54:33;100555.50;;;10.36;75.85
53647;BME280;39550;52.230;5.194;2023-04-24T11:56:58;100561.47;;;10.32;75.75
53647;BME280;39550;52.230;5.194;2023-04-24T11:59:24;100560.66;;;10.36;75.65
53647;BME280;39550;52.230;5.194;2023-04-24T12:01:50;100565.81;;;10.45;75.75
53647;BME280;39550;52.230;5.194;2023-04-24T12:04:17;100582.16;;;10.44;75.34
53647;BME280;39550;52.230;5.194;2023-04-24T12:07:02;100575.28;;;10.46;75.62
53647;BME280;39550;52.230;5.194;2023-04-24T12:09:28;100585.59;;;10.49;75.08
53647;BME280;39550;52.230;5.194;2023-04-24T12:11:54;100582.16;;;10.44;75.03
53647;BME280;39550;52.230;5.194;2023-04-24T12:14:22;100583.81;;;10.33;75.82
53647;BME280;39550;52.230;5.194;2023-04-24T12:16:48;100589.78;;;10.29;75.54
53647;BME280;39550;52.230;5.194;2023-04-24T12:19:23;100589.81;;;10.33;75.36
53647;BME280;39550;52.230;5.194;2023-04-24T12:22:03;100591.56;;;10.36;75.38
53647;BME280;39550;52.230;5.194;2023-04-24T12:24:29;100595.00;;;10.36;75.16
53647;BME280;39550;52.230;5.194;2023-04-24T12:26:56;100597.47;;;10.27;75.63
53647;BME280;39550;52.230;5.194;2023-04-24T12:29:22;100600.03;;;10.21;75.71
53647;BME280;39550;52.230;5.194;2023-04-24T12:31:47;100608.59;;;10.12;75.90
53647;BME280;39550;52.230;5.194;2023-04-24T12:34:23;100616.25;;;10.08;76.31
53647;BME280;39550;52.230;5.194;2023-04-24T12:36:48;100627.38;;;10.03;76.22
53647;BME280;39550;52.230;5.194;2023-04-24T12:39:18;100627.38;;;10.02;76.31
53647;BME280;39550;52.230;5.194;2023-04-24T12:41:57;100635.94;;;9.98;76.79
53647;BME280;39550;52.230;5.194;2023-04-24T12:44:33;100652.19;;;9.94;76.55
53647;BME280;39550;52.230;5.194;2023-04-24T12:47:00;100653.91;;;9.92;76.94
53647;BME280;39550;52.230;5.194;2023-04-24T12:49:26;100649.63;;;9.92;77.00
53647;BME280;39550;52.230;5.194;2023-04-24T12:51:51;100649.63;;;9.92;76.79
53647;BME280;39550;52.230;5.194;2023-04-24T12:54:16;100658.19;;;9.93;77.48
53647;BME280;39550;52.230;5.194;2023-04-24T12:56:42;100653.94;;;9.95;77.38
53647;BME280;39550;52.230;5.194;2023-04-24T12:59:08;100648.78;;;9.95;77.00
53647;BME280;39550;52.230;5.194;2023-04-24T13:01:33;100655.69;;;9.99;77.09
53647;BME280;39550;52.230;5.194;2023-04-24T13:03:58;100647.16;;;10.06;76.79
53647;BME280;39550;52.230;5.194;2023-04-24T13:06:23;100651.53;;;10.19;76.46
53647;BME280;39550;52.230;5.194;2023-04-24T13:08:49;100659.50;;;10.56;74.95
53647;BME280;39550;52.230;5.194;2023-04-24T13:11:14;100663.00;;;10.77;73.70
53647;BME280;39550;52.230;5.194;2023-04-24T13:13:40;100649.97;;;10.38;74.37
53647;BME280;39550;52.230;5.194;2023-04-24T13:16:05;100649.72;;;10.06;74.12
53647;BME280;39550;52.230;5.194;2023-04-24T13:18:30;100651.44;;;10.02;74.50
53647;BME280;39550;52.230;5.194;2023-04-24T13:20:56;100656.59;;;10.09;74.13
53647;BME280;39550;52.230;5.194;2023-04-24T13:23:22;100657.44;;;10.06;74.16
53647;BME280;39550;52.230;5.194;2023-04-24T13:28:25;100669.50;;;10.13;74.31
53647;BME280;39550;52.230;5.194;2023-04-24T13:30:51;100664.34;;;10.13;74.35
53647;BME280;39550;52.230;5.194;2023-04-24T13:33:16;100674.63;;;10.07;74.20
53647;BME280;39550;52.230;5.194;2023-04-24T13:35:41;100672.88;;;10.01;74.75
53647;BME280;39550;52.230;5.194;2023-04-24T13:38:07;100675.47;;;10.09;74.29
53647;BME280;39550;52.230;5.194;2023-04-24T13:40:32;100667.84;;;10.21;73.91
53647;BME280;39550;52.230;5.194;2023-04-24T13:42:58;100669.16;;;11.10;71.36
53647;BME280;39550;52.230;5.194;2023-04-24T13:45:23;100671.84;;;11.69;69.39
53647;BME280;39550;52.230;5.194;2023-04-24T13:47:48;100661.50;;;11.78;68.69